Time;durP1;ratioP1;P1;durP2;ratioP2;P2;SDS_P1;SDS_P2;PMS_P1;PMS_P2;Temp;Humidity;BMP_temperature;BMP_pressure;BME280_temperature;BME280_humidity;BME280_pressure;Samples;Min_cycle;Max_cycle;Signal;HPM_P1;HPM_P2
2021/12/15 00:01:20;;;;;;;29.80;18.08;;;;;;;2.23;81.66;100694.97;5071662;28;20048;-20
2021/12/15 00:03:46;;;;;;;35.00;20.70;;;;;;;2.62;80.70;100715.75;5071241;28;20101;-20
2021/12/15 00:06:16;;;;;;;32.45;17.77;;;;;;;2.39;81.30;100717.97;5071600;28;20036;-21
2021/12/15 00:08:41;;;;;;;32.78;18.25;;;;;;;2.35;82.12;100711.34;5071180;28;20508;-21
2021/12/15 00:11:07;;;;;;;33.35;19.00;;;;;;;2.34;82.12;100739.47;5071317;28;20029;-21
2021/12/15 00:13:35;;;;;;;29.88;19.08;;;;;;;2.29;81.23;100715.44;5071229;28;20112;-20
2021/12/15 00:16:01;;;;;;;34.15;20.63;;;;;;;2.52;80.42;100733.41;5071355;28;20110;-21
2021/12/15 00:18:27;;;;;;;29.13;17.75;;;;;;;2.54;79.60;100734.91;5070710;28;20450;-21
2021/12/15 00:20:52;;;;;;;32.85;17.25;;;;;;;2.12;80.80;100739.91;5071047;28;20062;-20
2021/12/15 00:23:17;;;;;;;30.63;19.55;;;;;;;2.24;80.99;100733.44;5071158;28;20555;-20
2021/12/15 00:25:43;;;;;;;32.13;18.10;;;;;;;2.26;80.25;100733.31;5071172;28;20501;-21
2021/12/15 00:28:08;;;;;;;30.10;17.52;;;;;;;2.15;80.90;100726.47;5070890;28;20028;-21
2021/12/15 00:30:34;;;;;;;28.10;17.25;;;;;;;2.18;80.78;100739.31;5070844;28;20032;-20
2021/12/15 00:33:00;;;;;;;28.48;17.85;;;;;;;2.25;81.31;100729.84;5070858;28;20032;-20
2021/12/15 00:35:25;;;;;;;26.70;17.20;;;;;;;2.03;82.16;100743.41;5070640;28;20079;-20
2021/12/15 00:37:51;;;;;;;36.47;27.63;;;;;;;2.29;82.36;100743.53;5070906;28;20028;-20
2021/12/15 00:40:18;;;;;;;30.08;19.95;;;;;;;2.32;81.75;100746.69;5070614;28;20495;-20
2021/12/15 00:42:43;;;;;;;24.20;15.45;;;;;;;2.06;81.78;100730.78;5070502;28;20106;-20
2021/12/15 00:45:09;;;;;;;26.92;16.63;;;;;;;2.31;81.37;100745.06;5070650;28;20036;-21
2021/12/15 00:47:35;;;;;;;27.95;15.82;;;;;;;2.21;80.83;100723.22;5052675;28;20031;-20
2021/12/15 00:50:06;;;;;;;26.92;15.77;;;;;;;2.49;80.17;100729.25;5070831;28;20033;-20
2021/12/15 00:52:33;;;;;;;23.92;15.45;;;;;;;2.31;80.58;100739.78;5070328;28;20412;-20
2021/12/15 00:54:58;;;;;;;25.75;15.25;;;;;;;2.22;80.76;100746.75;5070567;28;20028;-20
2021/12/15 00:57:24;;;;;;;24.40;14.52;;;;;;;2.30;80.49;100753.91;5070461;28;20032;-20
2021/12/15 00:59:49;;;;;;;25.52;15.50;;;;;;;2.07;80.93;100748.25;5070192;28;20028;-21
2021/12/15 01:02:15;;;;;;;31.65;19.85;;;;;;;2.06;80.64;100737.84;5070381;28;20040;-20
2021/12/15 01:04:40;;;;;;;26.77;15.27;;;;;;;2.32;79.61;100736.16;5070029;28;20047;-20
2021/12/15 01:07:07;;;;;;;24.83;15.52;;;;;;;2.11;80.52;100733.00;5070008;28;20036;-20
2021/12/15 01:09:47;;;;;;;29.70;17.38;;;;;;;1.89;80.44;100729.75;5069992;28;20472;-20
2021/12/15 01:20:47;;;;;;;32.30;18.20;;;;;;;1.67;81.45;100730.97;5069718;28;20173;-21
2021/12/15 01:23:14;;;;;;;31.88;18.23;;;;;;;1.78;81.57;100727.34;5070140;28;20048;-20
2021/12/15 01:25:46;;;;;;;30.33;16.90;;;;;;;1.66;80.75;100723.25;5069803;28;20044;-21
2021/12/15 01:28:11;;;;;;;30.00;16.98;;;;;;;1.33;82.82;100728.88;5069959;28;20032;-20
2021/12/15 01:30:39;;;;;;;30.38;17.95;;;;;;;1.00;83.84;100732.78;5069562;28;20036;-20
2021/12/15 01:33:05;;;;;;;30.75;16.98;;;;;;;1.05;83.91;100730.59;5069667;28;20032;-20
2021/12/15 01:35:30;;;;;;;28.98;16.98;;;;;;;1.24;83.25;100713.94;5069474;28;20063;-20
2021/12/15 01:37:56;;;;;;;35.55;18.48;;;;;;;1.12;82.97;100710.66;5069620;28;20028;-20
2021/12/15 01:40:35;;;;;;;34.17;17.60;;;;;;;0.95;83.19;100708.75;5069349;28;20082;-20
2021/12/15 01:43:27;;;;;;;29.27;16.85;;;;;;;1.30;82.83;100728.31;5069721;28;20047;-20
2021/12/15 01:48:39;;;;;;;24.92;14.40;;;;;;;1.17;82.89;100718.94;5069416;28;20082;-22
2021/12/15 01:51:05;;;;;;;26.17;15.73;;;;;;;1.00;82.29;100717.03;5068976;28;20055;-21
2021/12/15 01:53:30;;;;;;;28.55;14.90;;;;;;;0.95;82.69;100714.00;5069201;28;20021;-20
2021/12/15 01:55:56;;;;;;;26.98;15.00;;;;;;;0.93;82.47;100692.31;5069292;28;20039;-27
2021/12/15 01:58:21;;;;;;;24.90;14.90;;;;;;;0.99;83.29;100699.63;5069098;28;20020;-21
2021/12/15 02:00:49;;;;;;;25.83;14.65;;;;;;;1.12;83.08;100707.19;5069372;28;20032;-20
2021/12/15 02:03:15;;;;;;;27.15;14.60;;;;;;;0.88;82.52;100711.13;5069107;28;20484;-21
2021/12/15 02:05:40;;;;;;;27.25;15.55;;;;;;;0.98;83.33;100713.72;5069011;28;20044;-21
2021/12/15 02:08:07;;;;;;;25.38;14.43;;;;;;;0.87;83.69;100692.88;5068947;28;20029;-21
2021/12/15 02:10:35;;;;;;;25.73;14.18;;;;;;;0.82;84.12;100688.06;5068858;28;20040;-20
2021/12/15 02:13:03;;;;;;;26.23;15.15;;;;;;;0.75;84.55;100660.69;5068867;28;20028;-20
2021/12/15 02:15:32;;;;;;;24.58;14.00;;;;;;;0.78;84.64;100682.25;5068663;28;20051;-21
2021/12/15 02:17:58;;;;;;;23.88;13.95;;;;;;;0.49;85.43;100660.44;5068634;28;20043;-20
2021/12/15 02:20:27;;;;;;;25.38;13.98;;;;;;;0.66;84.98;100651.88;5068506;28;20190;-22
2021/12/15 02:22:52;;;;;;;24.25;13.65;;;;;;;0.59;86.36;100651.59;5068547;28;20093;-20
2021/12/15 02:25:18;;;;;;;21.73;13.13;;;;;;;0.65;88.08;100658.06;5068506;28;20032;-20
2021/12/15 02:27:44;;;;;;;25.58;13.07;;;;;;;0.79;87.29;100656.81;5068369;28;20036;-20
2021/12/15 02:30:42;;;;;;;25.23;13.02;;;;;;;0.69;87.49;100643.69;5068571;28;20029;-21
2021/12/15 02:38:32;;;;;;;24.33;12.85;;;;;;;0.45;88.33;100627.56;5067898;28;20780;-20
2021/12/15 02:41:05;;;;;;;;;;;;;;;0.49;88.90;100655.19;5068558;28;20043;-20
2021/12/15 02:43:32;;;;;;;27.15;12.20;;;;;;;0.44;88.73;100647.72;5068267;28;19920;-21
2021/12/15 02:45:58;;;;;;;26.05;13.43;;;;;;;0.67;88.30;100660.56;5068220;28;20035;-21
2021/12/15 02:48:23;;;;;;;22.38;11.95;;;;;;;0.61;88.38;100654.06;5068074;28;20020;-23
2021/12/15 02:50:49;;;;;;;24.40;14.18;;;;;;;0.83;87.42;100660.00;5066996;28;20062;-21
2021/12/15 02:53:16;;;;;;;25.75;12.82;;;;;;;0.73;88.01;100667.88;5068137;28;20046;-20
2021/12/15 02:55:41;;;;;;;25.30;13.75;;;;;;;0.79;87.79;100670.75;5068381;28;20062;-21
2021/12/15 02:58:07;;;;;;;27.50;14.57;;;;;;;0.85;87.91;100671.19;5067916;28;20043;-20
2021/12/15 03:00:47;;;;;;;27.23;15.45;;;;;;;0.77;88.31;100677.94;5067825;28;20028;-20
2021/12/15 03:06:28;;;;;;;22.98;13.75;;;;;;;0.94;87.47;100678.19;5068047;28;20523;-21
2021/12/15 03:09:08;;;;;;;26.08;14.30;;;;;;;0.93;87.30;100660.81;5067491;28;20063;-21
2021/12/15 03:17:02;;;;;;;24.70;13.32;;;;;;;1.51;84.29;100663.25;5067958;28;20161;-20
2021/12/15 03:19:27;;;;;;;25.05;13.70;;;;;;;1.54;83.78;100668.22;5067927;28;20037;-21
2021/12/15 03:21:53;;;;;;;24.05;14.20;;;;;;;1.57;83.78;100673.19;5067843;28;20055;-21
2021/12/15 03:24:20;;;;;;;24.33;13.57;;;;;;;1.38;83.46;100686.41;5067652;28;20028;-20
2021/12/15 03:26:54;;;;;;;23.63;12.57;;;;;;;1.01;84.91;100655.66;5067474;28;20545;-22
2021/12/15 03:35:04;;;;;;;22.77;11.95;;;;;;;1.17;85.61;100681.34;5052481;28;20566;-20
2021/12/15 03:37:32;;;;;;;21.25;11.93;;;;;;;1.04;84.79;100670.31;5067756;28;20192;-21
2021/12/15 03:40:06;;;;;;;20.33;12.13;;;;;;;1.20;84.57;100676.63;5067694;28;20048;-21
2021/12/15 03:42:35;;;;;;;21.23;11.55;;;;;;;1.50;84.46;100693.13;5067464;28;20028;-21
2021/12/15 03:45:01;;;;;;;18.10;10.95;;;;;;;1.28;83.63;100686.41;5067719;28;20033;-21
2021/12/15 03:47:30;;;;;;;20.08;12.40;;;;;;;1.09;84.57;100699.63;5067446;28;20068;-21
2021/12/15 03:49:55;;;;;;;;;;;;;;;1.09;85.31;100707.50;5067962;28;20032;-21
2021/12/15 03:52:21;;;;;;;24.45;13.80;;;;;;;0.92;85.06;100703.78;5067444;28;20310;-20
2021/12/15 03:54:47;;;;;;;20.15;11.20;;;;;;;0.93;86.01;100708.06;5066957;28;20040;-21
2021/12/15 03:57:12;;;;;;;18.88;12.05;;;;;;;1.19;84.59;100706.50;5067531;28;20228;-21
2021/12/15 03:59:42;;;;;;;25.67;13.13;;;;;;;1.54;83.20;100701.56;5049468;28;20527;-21
2021/12/15 04:02:08;;;;;;;20.38;11.90;;;;;;;1.51;82.11;100721.09;5067099;28;20037;-21
2021/12/15 04:04:34;;;;;;;24.92;14.70;;;;;;;1.03;83.69;100716.75;5049353;28;20559;-21
2021/12/15 04:06:59;;;;;;;30.38;17.27;;;;;;;0.65;85.37;100718.44;5067424;28;20082;-20
2021/12/15 04:09:25;;;;;;;22.88;12.23;;;;;;;0.80;85.06;100711.00;5067128;28;20052;-21
2021/12/15 04:11:52;;;;;;;19.23;11.68;;;;;;;1.18;83.63;100720.59;5067453;28;20485;-21
2021/12/15 04:14:21;;;;;;;19.83;11.55;;;;;;;0.90;84.28;100710.97;5067504;28;20024;-22
2021/12/15 04:16:58;;;;;;;;;;;;;;;0.82;85.15;100723.97;5071278;28;20123;-21
2021/12/15 04:19:24;;;;;;;16.88;10.02;;;;;;;0.72;85.88;100724.81;5070750;28;20331;-21
2021/12/15 04:21:49;;;;;;;19.13;11.13;;;;;;;0.79;86.00;100710.16;5070838;28;20036;-20
2021/12/15 04:24:16;;;;;;;17.98;9.82;;;;;;;0.85;86.31;100729.78;5070833;28;20043;-21
2021/12/15 04:26:41;;;;;;;19.58;10.88;;;;;;;0.80;86.41;100726.75;5070947;28;20119;-20
2021/12/15 04:29:07;;;;;;;18.38;10.18;;;;;;;0.93;86.03;100726.47;5070925;28;20115;-20
2021/12/15 04:31:34;;;;;;;18.40;10.18;;;;;;;1.15;85.04;100738.47;5071032;28;20116;-22
2021/12/15 04:34:02;;;;;;;17.95;10.57;;;;;;;1.35;84.07;100731.38;5070783;28;20086;-20
2021/12/15 04:36:36;;;;;;;23.92;12.60;;;;;;;1.38;83.39;100725.81;5070043;28;20587;-21
2021/12/15 04:39:03;;;;;;;23.92;11.35;;;;;;;1.47;82.73;100738.13;5070480;28;20036;-21
2021/12/15 04:41:29;;;;;;;70.95;31.05;;;;;;;1.59;80.25;100739.59;5070780;28;20530;-21
2021/12/15 04:43:57;;;;;;;23.17;13.10;;;;;;;1.32;81.29;100745.59;5070539;28;20093;-21
2021/12/15 04:46:30;;;;;;;20.40;11.20;;;;;;;1.09;81.88;100752.16;5070553;28;20420;-21
2021/12/15 04:48:56;;;;;;;40.72;21.70;;;;;;;0.97;82.37;100741.78;5070582;28;20033;-21
2021/12/15 04:51:21;;;;;;;66.47;34.55;;;;;;;0.85;83.48;100755.22;5070893;28;20028;-21
2021/12/15 04:53:47;;;;;;;33.15;19.70;;;;;;;1.05;83.10;100756.03;5070307;28;20381;-21
2021/12/15 04:56:13;;;;;;;34.70;19.95;;;;;;;0.89;82.80;100748.72;5070550;28;20415;-20
2021/12/15 04:58:39;;;;;;;31.88;18.52;;;;;;;0.65;84.00;100738.63;5069997;28;20024;-20
2021/12/15 05:01:07;;;;;;;33.15;19.23;;;;;;;0.68;84.38;100743.63;5070252;28;20476;-21
2021/12/15 05:03:32;;;;;;;;;;;;;;;0.72;84.13;100753.69;5070711;28;20037;-21
2021/12/15 05:05:58;;;;;;;26.23;13.73;;;;;;;0.70;84.16;100746.94;5070256;28;19999;-21
2021/12/15 05:08:23;;;;;;;26.40;13.82;;;;;;;1.21;83.08;100751.03;5070046;28;20089;-21
2021/12/15 05:10:50;;;;;;;54.25;26.00;;;;;;;1.51;82.42;100775.44;5069822;28;20031;-21
2021/12/15 05:13:16;;;;;;;79.68;36.42;;;;;;;1.15;83.18;100772.63;5069987;28;20042;-21
2021/12/15 05:15:42;;;;;;;93.47;41.92;;;;;;;1.33;83.17;100776.19;5052452;28;20033;-21
2021/12/15 05:18:07;;;;;;;63.13;29.92;;;;;;;1.24;83.57;100782.25;5069581;28;20039;-21
2021/12/15 05:20:34;;;;;;;108.95;45.78;;;;;;;1.32;83.77;100786.81;5069788;28;20055;-20
2021/12/15 05:23:02;;;;;;;56.17;31.42;;;;;;;1.63;82.81;100789.25;5069625;28;20033;-21
2021/12/15 05:25:27;;;;;;;49.47;26.08;;;;;;;1.85;81.71;100775.75;5069502;28;20055;-21
2021/12/15 05:27:53;;;;;;;31.80;18.25;;;;;;;1.68;81.58;100768.63;5068990;28;20393;-21
2021/12/15 05:30:18;;;;;;;24.40;15.13;;;;;;;1.70;81.75;100788.53;5069925;28;20035;-21
2021/12/15 05:32:44;;;;;;;22.67;11.55;;;;;;;1.52;81.91;100772.66;5069444;28;20033;-21
2021/12/15 05:35:14;;;;;;;21.40;11.90;;;;;;;1.70;82.24;100772.75;5069613;28;20037;-21
2021/12/15 05:37:40;;;;;;;22.55;11.77;;;;;;;1.91;80.92;100780.44;5069748;28;20047;-21
2021/12/15 05:40:06;;;;;;;21.27;11.55;;;;;;;1.79;82.05;100790.28;5069340;28;20415;-21
2021/12/15 05:42:31;;;;;;;20.55;10.73;;;;;;;1.23;83.99;100782.41;5069507;28;20029;-21
2021/12/15 05:44:57;;;;;;;23.00;11.90;;;;;;;1.24;83.85;100786.69;5069644;28;20035;-21
2021/12/15 05:47:24;;;;;;;22.45;11.88;;;;;;;1.54;83.90;100804.91;5069669;28;20509;-21
2021/12/15 05:49:50;;;;;;;24.35;10.80;;;;;;;1.38;83.16;100794.16;5069638;28;20037;-21
2021/12/15 05:52:15;;;;;;;24.33;12.80;;;;;;;1.27;83.30;100794.28;5069508;28;20090;-21
2021/12/15 05:54:41;;;;;;;23.65;12.63;;;;;;;1.46;82.68;100786.38;5068879;28;20060;-21
2021/12/15 05:57:06;;;;;;;34.03;19.60;;;;;;;1.57;83.49;100795.91;5069116;28;20044;-21
2021/12/15 05:59:32;;;;;;;28.92;15.50;;;;;;;1.71;82.05;100773.59;5068790;28;20504;-21
2021/12/15 06:01:57;;;;;;;29.73;20.13;;;;;;;1.64;81.87;100785.66;5069284;28;20024;-21
2021/12/15 06:04:23;;;;;;;29.50;18.75;;;;;;;1.54;82.72;100783.06;5069609;28;20035;-20
2021/12/15 06:06:48;;;;;;;28.08;14.65;;;;;;;1.39;83.31;100783.50;5068826;28;20517;-21
2021/12/15 06:09:14;;;;;;;27.65;14.88;;;;;;;1.70;82.84;100782.47;5050985;28;20028;-21
2021/12/15 06:11:40;;;;;;;21.90;12.63;;;;;;;2.04;81.95;100795.03;5068809;28;20028;-22
2021/12/15 06:14:06;;;;;;;22.88;12.77;;;;;;;2.25;81.45;100797.44;5068712;28;20526;-21
2021/12/15 06:16:32;;;;;;;23.25;12.85;;;;;;;2.25;80.89;100787.75;5068918;28;20040;-21
2021/12/15 06:18:57;;;;;;;23.48;12.70;;;;;;;2.34;79.96;100807.09;5068533;28;20024;-20
2021/12/15 06:21:23;;;;;;;32.17;17.90;;;;;;;1.88;81.62;100790.41;5068818;28;20024;-20
2021/12/15 06:23:49;;;;;;;32.33;16.80;;;;;;;2.07;81.21;100800.03;5068519;28;20024;-21
2021/12/15 06:26:15;;;;;;;23.58;13.50;;;;;;;1.94;80.89;100806.47;5068643;28;20036;-22
2021/12/15 06:28:40;;;;;;;22.08;12.75;;;;;;;1.96;81.21;100788.72;5068021;28;20825;-21
2021/12/15 06:31:08;;;;;;;20.92;12.38;;;;;;;2.05;80.45;100804.63;5068782;28;20036;-21
2021/12/15 06:33:34;;;;;;;25.63;12.52;;;;;;;1.75;81.50;100812.59;5068760;28;20036;-21
2021/12/15 06:36:01;;;;;;;25.83;15.70;;;;;;;1.57;82.02;100825.66;5068513;28;20097;-22
2021/12/15 06:38:31;;;;;;;23.92;14.65;;;;;;;1.51;83.19;100820.97;5067618;28;20094;-21
2021/12/15 06:40:57;;;;;;;22.17;12.45;;;;;;;1.66;82.09;100815.28;5068831;28;20056;-21
2021/12/15 06:43:23;;;;;;;23.83;13.02;;;;;;;1.32;83.02;100810.47;5068528;28;20032;-21
2021/12/15 06:59:16;;;;;;;27.08;13.57;;;;;;;1.37;84.62;100803.00;5068068;28;20048;-21
2021/12/15 07:01:42;;;;;;;28.83;15.15;;;;;;;1.38;85.17;100807.28;5068505;28;20036;-20
2021/12/15 07:04:07;;;;;;;30.75;14.25;;;;;;;1.33;84.76;100780.63;5067895;28;20039;-21
2021/12/15 07:06:32;;;;;;;29.13;14.25;;;;;;;1.26;84.88;100779.50;5067853;28;20032;-20
2021/12/15 07:08:58;;;;;;;26.98;16.30;;;;;;;1.24;85.18;100802.47;5067788;28;20036;-21
2021/12/15 07:11:24;;;;;;;27.88;14.23;;;;;;;1.26;85.66;100790.00;5067663;28;20819;-22
2021/12/15 07:13:50;;;;;;;29.00;13.95;;;;;;;1.35;84.61;100804.94;5068099;28;20128;-21
2021/12/15 07:16:18;;;;;;;25.83;13.05;;;;;;;1.33;85.11;100812.16;5068266;28;20032;-21
2021/12/15 07:18:51;;;;;;;28.27;14.00;;;;;;;1.33;86.00;100809.53;5067626;28;20085;-21
2021/12/15 07:21:21;;;;;;;27.33;13.88;;;;;;;1.54;84.56;100809.34;5067989;28;20523;-20
2021/12/15 07:23:47;;;;;;;30.92;14.10;;;;;;;1.50;84.57;100815.84;5050430;28;20036;-21
2021/12/15 07:26:13;;;;;;;27.85;14.68;;;;;;;1.68;84.84;100808.06;5067545;28;20032;-20
2021/12/15 07:28:38;;;;;;;29.60;17.00;;;;;;;1.87;83.45;100825.59;5067618;28;20174;-21
2021/12/15 07:31:04;;;;;;;24.58;14.55;;;;;;;1.89;83.06;100819.19;5067520;28;20039;-20
2021/12/15 09:27:50;;;;;;;53.50;26.87;;;;;;;2.58;89.07;100891.63;4856603;27;8279859;-21
2021/12/15 09:30:18;;;;;;;34.95;18.45;;;;;;;2.86;85.78;100878.47;5105486;28;20550;-21
2021/12/15 09:32:44;;;;;;;32.75;18.65;;;;;;;3.20;84.16;100880.41;5105549;28;20032;-20
2021/12/15 09:35:09;;;;;;;31.13;18.20;;;;;;;3.27;83.46;100884.13;5105477;28;20044;-20
2021/12/15 09:37:35;;;;;;;30.67;16.55;;;;;;;3.35;82.96;100880.72;5105281;28;20028;-20
2021/12/15 09:40:01;;;;;;;37.10;20.33;;;;;;;3.34;81.56;100876.44;5104939;28;20489;-20
2021/12/15 09:42:33;;;;;;;42.42;22.05;;;;;;;3.50;82.68;100889.75;5104205;28;20500;-20
2021/12/15 09:45:14;;;;;;;37.10;20.15;;;;;;;3.71;81.51;100886.78;5105097;28;20558;-20
2021/12/15 10:04:21;;;;;;;28.75;16.98;;;;;;;4.08;82.87;100903.34;5104946;28;20050;-21
2021/12/15 10:18:08;;;;;;;31.23;17.02;;;;;;;4.34;79.04;100883.03;5104641;28;20058;-20
2021/12/15 10:20:37;;;;;;;28.27;16.27;;;;;;;4.29;79.22;100885.31;5104664;28;20036;-21
2021/12/15 10:23:04;;;;;;;30.08;16.75;;;;;;;4.13;80.52;100885.25;5104570;28;20024;-20
2021/12/15 10:25:30;;;;;;;33.80;16.02;;;;;;;4.36;79.12;100886.34;5104321;28;20495;-20
2021/12/15 10:28:07;;;;;;;31.40;16.45;;;;;;;4.38;80.77;100868.53;5108869;28;20063;-21
2021/12/15 10:30:44;;;;;;;31.90;16.75;;;;;;;4.39;80.11;100875.47;5124832;28;20417;-21
2021/12/15 10:33:15;;;;;;;28.37;15.87;;;;;;;4.33;79.81;100872.63;5124893;28;20100;-21
2021/12/15 10:35:45;;;;;;;30.75;16.73;;;;;;;4.34;80.78;100866.38;5124715;28;20027;-20
2021/12/15 10:38:17;;;;;;;30.20;17.58;;;;;;;4.39;81.45;100874.63;5096544;28;20104;-20
2021/12/15 10:41:16;;;;;;;31.33;17.73;;;;;;;4.45;81.22;100870.53;5111173;28;20036;-21
2021/12/15 10:43:50;;;;;;;32.05;16.10;;;;;;;4.17;82.04;100858.38;5110799;28;20058;-21
2021/12/15 10:46:22;;;;;;;28.48;15.48;;;;;;;3.97;82.67;100860.41;5111075;28;20028;-20
2021/12/15 10:49:02;;;;;;;30.17;16.67;;;;;;;4.23;82.76;100870.13;5093951;28;20024;-25
2021/12/15 10:51:38;;;;;;;30.27;16.17;;;;;;;4.34;83.14;100869.81;5111474;28;20038;-20
2021/12/15 10:54:29;;;;;;;31.15;17.75;;;;;;;4.36;83.08;100859.94;5111206;28;20031;-20
2021/12/15 10:57:03;;;;;;;29.13;15.52;;;;;;;4.11;82.63;100853.72;5106595;28;20127;-20
2021/12/15 10:59:31;;;;;;;31.92;16.08;;;;;;;4.14;83.20;100855.22;5110776;28;20039;-21
2021/12/15 11:02:01;;;;;;;45.72;23.25;;;;;;;4.31;82.75;100851.66;5110710;28;20518;-20
2021/12/15 11:04:33;;;;;;;46.85;24.38;;;;;;;4.56;83.20;100834.09;5110946;28;20054;-20
2021/12/15 11:07:18;;;;;;;30.77;18.33;;;;;;;5.32;80.27;100860.50;5110986;28;20035;-20
2021/12/15 11:10:00;;;;;;;28.27;15.07;;;;;;;5.53;79.45;100852.88;5110373;28;20035;-20
2021/12/15 11:12:33;;;;;;;26.20;11.88;;;;;;;5.11;79.43;100848.56;5110760;28;20019;-21
2021/12/15 11:15:15;;;;;;;24.45;14.13;;;;;;;4.77;80.41;100835.47;5110774;28;20042;-20
2021/12/15 11:17:54;;;;;;;24.35;14.55;;;;;;;4.66;81.34;100815.47;5110174;28;20481;-20
2021/12/15 11:20:25;;;;;;;20.17;10.98;;;;;;;4.46;79.59;100814.09;5110627;28;20023;-20
2021/12/15 11:22:53;;;;;;;25.17;13.90;;;;;;;4.59;80.21;100817.09;5110284;28;20059;-21
2021/12/15 11:25:20;;;;;;;27.05;13.05;;;;;;;4.61;79.45;100820.41;5110316;28;20035;-21
2021/12/15 11:27:55;;;;;;;25.77;14.23;;;;;;;4.77;78.68;100835.47;5110023;28;20109;-20
2021/12/15 11:30:53;;;;;;;24.02;12.18;;;;;;;4.92;77.70;100833.81;5110351;28;20062;-20
2021/12/15 11:33:20;;;;;;;21.38;11.52;;;;;;;4.87;77.35;100822.94;5102914;28;20054;-21
2021/12/15 11:35:49;;;;;;;22.67;13.13;;;;;;;4.86;76.46;100808.03;5091607;28;20040;-20
2021/12/15 11:38:26;;;;;;;23.75;13.32;;;;;;;5.16;76.71;100825.09;5110294;28;20071;-22
2021/12/15 11:40:58;;;;;;;25.07;13.83;;;;;;;5.28;76.44;100832.72;5091654;28;20027;-20
2021/12/15 11:43:43;;;;;;;37.38;18.55;;;;;;;4.98;76.50;100824.44;5110028;28;20659;-22
2021/12/15 11:46:19;;;;;;;25.17;13.05;;;;;;;5.12;75.99;100821.13;5110017;28;20063;-20
2021/12/15 11:49:08;;;;;;;26.20;13.00;;;;;;;4.93;75.61;100797.66;5109239;28;20023;-20
2021/12/15 11:51:39;;;;;;;;;;;;;;;5.08;75.44;100825.09;5110239;28;20027;-20
2021/12/15 11:54:30;;;;;;;22.63;12.65;;;;;;;4.91;75.96;100807.59;5109667;28;19915;-21
2021/12/15 11:56:59;;;;;;;21.75;11.80;;;;;;;4.92;76.80;100820.59;5109735;28;20050;-21
2021/12/15 11:59:28;;;;;;;20.20;12.48;;;;;;;5.10;75.36;100825.75;5109361;28;20035;-21
2021/12/15 12:02:33;;;;;;;22.45;12.73;;;;;;;5.28;74.96;100822.97;5109378;28;20074;-20
2021/12/15 12:05:08;;;;;;;18.73;10.98;;;;;;;5.24;73.96;100813.69;5105179;28;20878;-20
2021/12/15 12:07:43;;;;;;;17.75;10.10;;;;;;;5.18;73.73;100811.72;5109280;28;20383;-21
2021/12/15 12:10:16;;;;;;;18.27;10.52;;;;;;;5.20;74.36;100815.84;5091722;28;20044;-21
2021/12/15 12:12:51;;;;;;;19.38;11.60;;;;;;;5.32;74.15;100823.47;5109167;28;20511;-20
2021/12/15 12:15:18;;;;;;;17.00;11.20;;;;;;;5.26;73.18;100805.59;5092522;28;20131;-21
2021/12/15 12:17:46;;;;;;;19.17;11.32;;;;;;;5.12;74.00;100785.94;5109086;28;20106;-21
2021/12/15 12:20:11;;;;;;;16.02;9.23;;;;;;;5.28;73.10;100822.13;5090771;28;20039;-21
2021/12/15 12:22:37;;;;;;;17.85;10.07;;;;;;;5.13;73.67;100804.28;5109034;28;20036;-21
2021/12/15 12:25:09;;;;;;;18.13;12.23;;;;;;;5.21;74.19;100809.56;5109416;28;20803;-20
2021/12/15 12:27:34;;;;;;;18.95;9.60;;;;;;;5.13;72.65;100819.31;5108689;28;20031;-21
2021/12/15 12:30:02;;;;;;;17.58;9.95;;;;;;;5.13;72.73;100790.22;5109266;28;20474;-21
2021/12/15 12:32:27;;;;;;;19.77;10.35;;;;;;;5.28;73.71;100822.97;5109193;28;20034;-20
2021/12/15 12:34:53;;;;;;;19.67;10.25;;;;;;;5.19;72.63;100824.78;5109243;28;20031;-20
2021/12/15 12:37:19;;;;;;;15.00;8.25;;;;;;;5.16;73.30;100824.28;5090543;28;20131;-20
2021/12/15 12:39:48;;;;;;;17.63;8.50;;;;;;;5.06;71.01;100800.63;5109076;28;20084;-21
2021/12/15 12:42:37;;;;;;;16.27;9.20;;;;;;;5.29;72.16;100829.06;5108814;28;20028;-20
2021/12/15 12:45:23;;;;;;;15.18;8.43;;;;;;;5.31;70.03;100821.78;5109054;28;20520;-20
2021/12/15 12:48:25;;;;;;;14.05;8.45;;;;;;;5.10;71.70;100804.59;5109190;28;20054;-21
2021/12/15 12:59:32;;;;;;;18.75;11.50;;;;;;;5.09;71.61;100818.81;5108901;28;20066;-20
2021/12/15 13:01:57;;;;;;;19.48;10.38;;;;;;;4.97;71.83;100799.00;5108554;28;20038;-20
2021/12/15 13:04:35;;;;;;;17.63;9.38;;;;;;;4.97;71.83;100815.69;5109174;28;20107;-20
2021/12/15 13:07:00;;;;;;;14.68;8.15;;;;;;;4.82;71.76;100791.72;5090946;28;20529;-20
2021/12/15 13:09:25;;;;;;;19.95;9.15;;;;;;;4.77;72.08;100787.91;5073332;28;20027;-21
2021/12/15 13:11:52;;;;;;;32.03;15.88;;;;;;;5.07;72.48;100807.59;5090574;28;20539;-21
2021/12/15 13:14:20;;;;;;;19.85;11.50;;;;;;;4.78;72.56;100800.97;5090578;28;20023;-20
2021/12/15 13:16:54;;;;;;;21.23;11.30;;;;;;;4.97;71.84;100820.16;5108437;28;20033;-20
2021/12/15 13:19:28;;;;;;;18.15;10.25;;;;;;;5.01;71.44;100821.47;5108475;28;20379;-21
2021/12/15 13:31:08;;;;;;;18.70;10.52;;;;;;;5.22;71.58;100842.13;5108506;28;20086;-21
2021/12/15 13:33:38;;;;;;;17.20;9.77;;;;;;;5.36;70.24;100840.66;5107728;28;20452;-20
2021/12/15 13:36:17;;;;;;;17.23;10.18;;;;;;;5.28;69.32;100822.13;5081169;28;20031;-20
2021/12/15 13:38:46;;;;;;;17.00;9.73;;;;;;;5.41;68.92;100838.31;5078395;28;20046;-20
2021/12/15 13:44:47;;;;;;;16.77;9.18;;;;;;;5.14;69.29;100836.84;5078464;28;20040;-20
2021/12/15 13:47:20;;;;;;;17.20;9.52;;;;;;;4.95;68.23;100837.97;5061774;28;20033;-20
2021/12/15 13:49:57;;;;;;;15.18;8.68;;;;;;;4.87;69.16;100840.63;5076390;28;20466;-20
2021/12/15 13:52:35;;;;;;;18.40;10.00;;;;;;;4.96;69.13;100851.00;5062236;28;20017;-20
2021/12/15 13:55:11;;;;;;;20.02;11.00;;;;;;;5.09;70.08;100839.13;5075904;28;20107;-20
2021/12/15 13:57:58;;;;;;;20.65;11.48;;;;;;;5.06;69.74;100852.69;5084585;28;20708;-20
2021/12/15 14:01:01;;;;;;;21.60;12.02;;;;;;;4.85;70.01;100826.72;5069881;28;20044;-21
2021/12/15 14:03:31;;;;;;;27.30;16.38;;;;;;;5.11;69.17;100867.09;5068970;28;20097;-20
2021/12/15 14:06:02;;;;;;;23.48;13.73;;;;;;;5.02;69.56;100870.69;5087505;28;20108;-20
2021/12/15 14:08:29;;;;;;;20.23;11.40;;;;;;;5.12;69.17;100881.94;5087408;28;20704;-20
2021/12/15 14:10:58;;;;;;;18.75;10.57;;;;;;;4.98;69.23;100856.16;5087320;28;20128;-20
2021/12/15 14:13:36;;;;;;;18.35;10.18;;;;;;;4.89;70.40;100867.72;5089888;28;20031;-20
2021/12/15 14:16:02;;;;;;;19.25;9.82;;;;;;;5.07;69.67;100878.13;5091330;28;20028;-21
2021/12/15 14:18:30;;;;;;;19.02;10.40;;;;;;;5.00;70.12;100877.97;5073130;28;20032;-22
2021/12/15 14:21:12;;;;;;;18.50;9.93;;;;;;;5.04;70.16;100879.28;5091022;28;20024;-20
2021/12/15 14:23:41;;;;;;;28.88;14.43;;;;;;;4.85;70.12;100856.63;5090874;28;20032;-20
2021/12/15 14:26:15;;;;;;;23.08;13.38;;;;;;;4.73;69.84;100858.72;5090949;28;20040;-20
2021/12/15 14:28:43;;;;;;;22.13;12.00;;;;;;;4.76;70.25;100876.94;5091073;28;20048;-21
2021/12/15 14:31:18;;;;;;;19.38;9.95;;;;;;;4.70;70.84;100866.16;5090974;28;20499;-21
2021/12/15 14:33:48;;;;;;;18.60;11.00;;;;;;;4.64;70.64;100883.50;5090594;28;20465;-20
2021/12/15 14:36:15;;;;;;;19.63;11.20;;;;;;;4.56;70.74;100862.31;5090898;28;20032;-21
2021/12/15 14:38:48;;;;;;;14.65;7.97;;;;;;;4.62;70.41;100885.47;5090979;28;20055;-20
2021/12/15 14:41:19;;;;;;;19.20;10.32;;;;;;;4.56;70.88;100880.81;5090875;28;20483;-21
2021/12/15 14:43:56;;;;;;;21.92;12.25;;;;;;;4.63;71.64;100863.31;5090639;28;20035;-20
2021/12/15 14:46:27;;;;;;;22.13;11.83;;;;;;;4.79;70.76;100873.13;5090993;28;20044;-20
2021/12/15 14:49:34;;;;;;;26.73;15.10;;;;;;;4.63;71.09;100881.81;5091006;28;20063;-20
2021/12/15 14:52:14;;;;;;;17.13;9.60;;;;;;;4.48;70.58;100847.28;5082116;28;20042;-20
2021/12/15 14:54:40;;;;;;;17.80;8.70;;;;;;;4.48;70.76;100860.47;5090217;28;20126;-21
2021/12/15 14:57:11;;;;;;;18.92;9.65;;;;;;;4.35;71.05;100866.22;5072530;28;20030;-20
2021/12/15 14:59:44;;;;;;;18.25;10.07;;;;;;;4.38;71.38;100884.38;5090100;28;20177;-20